createdAt,value
2023-02-26T00:00:14.909Z,1.03
2023-02-26T00:02:42.688Z,1.30
2023-02-26T00:05:10.130Z,1.00
2023-02-26T00:07:37.358Z,1.27
2023-02-26T00:10:06.307Z,0.97
2023-02-26T00:12:33.497Z,1.77
2023-02-26T00:15:01.015Z,1.00
2023-02-26T00:17:40.713Z,0.97
2023-02-26T00:20:08.839Z,1.77
2023-02-26T00:22:36.209Z,1.50
2023-02-26T00:25:03.325Z,1.33
2023-02-26T00:27:30.368Z,1.20
2023-02-26T00:29:57.584Z,1.60
2023-02-26T00:32:24.956Z,1.17
2023-02-26T00:34:52.076Z,1.57
2023-02-26T00:37:34.247Z,1.90
2023-02-26T00:40:29.516Z,1.47
2023-02-26T00:42:56.585Z,1.30
2023-02-26T00:45:23.826Z,1.40
2023-02-26T00:48:21.098Z,1.63
2023-02-26T00:50:59.430Z,1.53
2023-02-26T00:53:32.789Z,1.70
2023-02-26T00:55:59.885Z,1.50
2023-02-26T00:58:27.011Z,1.47
2023-02-26T01:00:54.059Z,1.90
2023-02-26T01:03:21.277Z,1.30
2023-02-26T01:05:48.432Z,1.40
2023-02-26T01:08:46.793Z,1.50
2023-02-26T01:11:13.987Z,1.13
2023-02-26T01:13:40.799Z,1.40
2023-02-26T01:16:12.404Z,1.33
2023-02-26T01:18:46.184Z,1.10
2023-02-26T01:21:19.075Z,2.00
2023-02-26T01:23:49.571Z,1.40
2023-02-26T01:26:28.182Z,1.13
2023-02-26T01:28:55.558Z,1.10
2023-02-26T01:31:43.652Z,1.23
2023-02-26T01:34:32.236Z,1.50
2023-02-26T01:37:11.971Z,1.70
2023-02-26T01:40:02.368Z,1.40
2023-02-26T01:42:33.416Z,1.37
2023-02-26T01:45:13.813Z,2.53
2023-02-26T01:47:49.459Z,2.30
2023-02-26T01:50:31.994Z,1.77
2023-02-26T01:53:21.871Z,1.50
2023-02-26T01:55:55.718Z,1.20
2023-02-26T01:58:24.086Z,1.27
2023-02-26T02:00:52.133Z,1.20
2023-02-26T02:03:22.333Z,1.80
2023-02-26T02:05:55.635Z,0.83
2023-02-26T02:08:23.310Z,1.13
2023-02-26T02:10:52.342Z,1.30
2023-02-26T02:13:51.178Z,1.13
2023-02-26T02:16:34.432Z,1.07
2023-02-26T02:19:27.717Z,1.10
2023-02-26T02:22:27.747Z,0.90
2023-02-26T02:25:28.232Z,0.80
2023-02-26T02:28:35.042Z,1.20
2023-02-26T02:31:12.504Z,1.00
2023-02-26T02:33:50.732Z,1.17
2023-02-26T02:36:35.871Z,0.80
2023-02-26T02:39:09.537Z,1.23
2023-02-26T02:41:44.166Z,0.90
2023-02-26T02:44:15.525Z,1.07
2023-02-26T02:46:45.952Z,1.03
2023-02-26T02:49:25.320Z,0.80
2023-02-26T02:52:00.205Z,0.80
2023-02-26T02:54:51.159Z,0.73
2023-02-26T02:58:00.619Z,0.67
2023-02-26T03:00:30.263Z,0.93
2023-02-26T03:03:29.992Z,0.53
2023-02-26T03:05:57.057Z,0.63
2023-02-26T03:08:28.643Z,1.10
2023-02-26T03:10:55.922Z,0.77
2023-02-26T03:13:25.062Z,1.30
2023-02-26T03:15:59.367Z,1.20
2023-02-26T03:18:56.175Z,0.63
2023-02-26T03:21:38.856Z,1.13
2023-02-26T03:24:16.032Z,1.83
2023-02-26T03:26:58.041Z,1.03
2023-02-26T03:29:45.328Z,0.73
2023-02-26T03:32:33.466Z,0.70
2023-02-26T03:35:10.624Z,0.80
2023-02-26T03:37:44.652Z,0.80
2023-02-26T03:40:19.221Z,1.17
2023-02-26T03:42:46.363Z,0.77
2023-02-26T03:45:20.199Z,1.10
2023-02-26T03:47:50.068Z,0.70
2023-02-26T03:50:30.684Z,0.63
2023-02-26T03:53:21.673Z,1.20
2023-02-26T03:56:34.833Z,0.97
2023-02-26T03:59:20.678Z,0.80
2023-02-26T04:02:02.669Z,0.63
2023-02-26T04:04:46.586Z,0.77
2023-02-26T04:07:15.506Z,1.40
2023-02-26T04:09:43.583Z,1.10
2023-02-26T04:12:10.707Z,1.50
2023-02-26T04:14:41.650Z,0.80
2023-02-26T04:17:08.792Z,0.50
2023-02-26T04:19:36.488Z,1.00
2023-02-26T04:22:03.624Z,0.90
2023-02-26T04:24:30.666Z,0.70
2023-02-26T04:27:00.680Z,0.87
2023-02-26T04:29:28.056Z,1.27
2023-02-26T04:31:55.337Z,1.00
2023-02-26T04:34:23.515Z,1.13
2023-02-26T04:36:50.880Z,1.20
2023-02-26T04:39:18.150Z,0.50
2023-02-26T04:41:45.433Z,0.80
2023-02-26T04:44:13.283Z,1.00
2023-02-26T04:46:42.056Z,0.77
2023-02-26T04:49:08.746Z,0.83
2023-02-26T04:51:38.159Z,1.10
2023-02-26T04:54:07.681Z,0.70
2023-02-26T04:56:34.432Z,0.80
2023-02-26T04:59:02.788Z,1.10
2023-02-26T05:01:31.376Z,0.80
2023-02-26T05:03:59.163Z,1.03
2023-02-26T05:06:26.538Z,1.33
2023-02-26T05:08:53.400Z,1.00
2023-02-26T05:11:20.481Z,1.00
2023-02-26T05:13:47.716Z,0.83
2023-02-26T05:16:14.804Z,1.10
2023-02-26T05:18:41.623Z,0.87
2023-02-26T05:21:08.759Z,1.10
2023-02-26T05:23:35.864Z,0.80
2023-02-26T05:26:02.999Z,1.00
2023-02-26T05:28:30.139Z,1.00
2023-02-26T05:30:58.083Z,1.50
2023-02-26T05:33:25.716Z,0.90
2023-02-26T05:35:53.097Z,1.17
2023-02-26T05:38:20.400Z,0.80
2023-02-26T05:40:47.445Z,1.00
2023-02-26T05:43:14.570Z,0.83
2023-02-26T05:45:41.611Z,0.90
2023-02-26T05:48:11.020Z,1.00
2023-02-26T05:50:37.659Z,0.80
2023-02-26T05:53:04.335Z,0.70
2023-02-26T05:55:31.354Z,1.07
2023-02-26T05:57:57.963Z,1.23
2023-02-26T06:00:24.677Z,1.23
2023-02-26T06:02:51.805Z,0.70
2023-02-26T06:05:18.673Z,1.50
2023-02-26T06:07:46.665Z,1.30
2023-02-26T06:10:14.642Z,0.53
2023-02-26T06:12:41.236Z,0.77
2023-02-26T06:15:08.861Z,1.13
2023-02-26T06:17:36.096Z,0.80
2023-02-26T06:20:04.083Z,0.83
2023-02-26T06:22:31.079Z,1.00
2023-02-26T06:24:58.297Z,0.80
2023-02-26T06:27:25.454Z,1.27
2023-02-26T06:29:52.732Z,0.87
2023-02-26T06:32:20.001Z,1.10
2023-02-26T06:34:47.187Z,0.70
2023-02-26T06:37:13.936Z,1.00
2023-02-26T06:39:41.010Z,0.90
2023-02-26T06:42:08.140Z,0.70
2023-02-26T06:44:35.202Z,0.83
2023-02-26T06:47:02.433Z,0.60
2023-02-26T06:49:29.486Z,0.93
2023-02-26T06:51:56.700Z,0.60
2023-02-26T06:54:23.852Z,0.77
2023-02-26T06:56:50.538Z,1.07
2023-02-26T06:59:17.647Z,0.90
2023-02-26T07:01:44.722Z,0.67
2023-02-26T07:04:11.759Z,0.90
2023-02-26T07:06:38.937Z,0.70
2023-02-26T07:09:06.103Z,0.90
2023-02-26T07:11:33.282Z,0.73
2023-02-26T07:14:01.452Z,0.70
2023-02-26T07:16:28.882Z,0.90
2023-02-26T07:18:56.096Z,1.20
2023-02-26T07:21:23.381Z,0.80
2023-02-26T07:23:50.441Z,1.07
2023-02-26T07:26:17.593Z,0.90
2023-02-26T07:28:44.675Z,1.07
2023-02-26T07:31:11.765Z,1.53
2023-02-26T07:33:39.677Z,0.80
2023-02-26T07:36:06.802Z,1.00
2023-02-26T07:38:33.907Z,0.67
2023-02-26T07:41:01.027Z,0.70
2023-02-26T07:43:28.045Z,1.03
2023-02-26T07:45:55.202Z,0.90
2023-02-26T07:48:22.298Z,1.03
2023-02-26T07:50:51.891Z,1.13
2023-02-26T07:53:19.194Z,1.27
2023-02-26T07:55:46.240Z,0.70
2023-02-26T07:58:13.404Z,0.83
2023-02-26T08:00:40.474Z,0.80
2023-02-26T08:03:07.591Z,0.80
2023-02-26T08:05:34.781Z,0.70
2023-02-26T08:08:02.061Z,0.60
2023-02-26T08:10:29.544Z,0.83
2023-02-26T08:12:56.169Z,1.00
2023-02-26T08:15:23.348Z,1.07
2023-02-26T08:17:52.508Z,0.73
2023-02-26T08:20:19.622Z,0.93
2023-02-26T08:22:46.655Z,1.30
2023-02-26T08:25:13.663Z,0.53
2023-02-26T08:27:40.699Z,0.80
2023-02-26T08:30:08.511Z,1.03
2023-02-26T08:32:35.801Z,1.17
2023-02-26T08:35:02.868Z,1.17
2023-02-26T08:37:30.258Z,1.07
2023-02-26T08:39:57.321Z,0.70
2023-02-26T08:42:24.015Z,1.17
2023-02-26T08:44:51.139Z,0.70
2023-02-26T08:47:28.209Z,0.90
2023-02-26T08:49:56.039Z,0.70
2023-02-26T08:52:23.347Z,0.67
2023-02-26T08:54:50.486Z,0.53
2023-02-26T08:57:17.466Z,1.10
2023-02-26T08:59:44.570Z,1.00
2023-02-26T09:02:12.639Z,0.80
2023-02-26T09:04:39.868Z,0.70
2023-02-26T09:07:06.911Z,0.83
2023-02-26T09:09:33.946Z,0.60
2023-02-26T09:12:01.362Z,1.13
2023-02-26T09:14:28.608Z,0.87
2023-02-26T09:16:55.690Z,0.63
2023-02-26T09:19:22.792Z,0.70
2023-02-26T09:21:49.883Z,0.70
2023-02-26T09:24:16.484Z,0.77
2023-02-26T09:26:43.053Z,0.80
2023-02-26T09:29:11.422Z,0.47
2023-02-26T09:31:38.609Z,0.40
2023-02-26T09:34:05.730Z,0.80
2023-02-26T09:36:32.825Z,0.67
2023-02-26T09:39:00.717Z,0.43
2023-02-26T09:41:32.613Z,0.70
2023-02-26T09:44:20.534Z,0.60
2023-02-26T09:47:05.200Z,0.77
2023-02-26T09:49:34.603Z,0.40
2023-02-26T09:52:29.943Z,0.40
2023-02-26T09:55:01.032Z,0.40
2023-02-26T09:57:32.456Z,0.53
2023-02-26T10:00:00.509Z,0.50
2023-02-26T10:02:45.374Z,0.50
2023-02-26T10:05:24.176Z,0.50
2023-02-26T10:08:01.872Z,0.63
2023-02-26T10:10:37.898Z,0.43
2023-02-26T10:13:04.872Z,0.50
2023-02-26T10:15:42.464Z,0.70
2023-02-26T10:18:21.088Z,0.60
2023-02-26T10:20:59.135Z,0.80
2023-02-26T10:23:35.215Z,0.93
2023-02-26T10:26:24.935Z,0.57
2023-02-26T10:28:52.159Z,1.23
2023-02-26T10:31:30.629Z,0.50
2023-02-26T10:34:21.688Z,0.50
2023-02-26T10:36:59.319Z,0.40
2023-02-26T10:39:36.639Z,0.67
2023-02-26T10:42:15.495Z,0.70
2023-02-26T10:44:51.980Z,1.93
2023-02-26T10:47:54.367Z,0.57
2023-02-26T10:50:23.171Z,0.50
2023-02-26T10:52:51.696Z,0.67
2023-02-26T10:55:28.994Z,0.60
2023-02-26T10:58:11.126Z,0.63
2023-02-26T11:00:40.588Z,0.43
2023-02-26T11:03:13.508Z,0.40
2023-02-26T11:05:41.374Z,0.73
2023-02-26T11:08:32.142Z,0.80
2023-02-26T11:11:01.481Z,0.70
2023-02-26T11:13:30.550Z,0.97
2023-02-26T11:16:02.820Z,1.40
2023-02-26T11:18:49.591Z,0.70
2023-02-26T11:21:28.438Z,1.63
2023-02-26T11:24:08.874Z,0.60
2023-02-26T11:26:37.625Z,0.50
2023-02-26T11:29:06.096Z,1.07
2023-02-26T11:31:34.003Z,0.97
2023-02-26T11:34:05.003Z,0.30
2023-02-26T11:36:33.708Z,0.67
2023-02-26T11:39:15.482Z,0.47
2023-02-26T11:41:46.734Z,0.97
2023-02-26T11:44:21.185Z,0.60
2023-02-26T11:46:57.065Z,1.10
2023-02-26T11:49:26.166Z,0.60
2023-02-26T11:52:18.033Z,1.00
2023-02-26T11:54:46.814Z,0.40
2023-02-26T11:57:25.474Z,0.70
2023-02-26T11:59:54.272Z,0.50
2023-02-26T12:02:24.104Z,1.20
2023-02-26T12:04:57.438Z,1.27
2023-02-26T12:07:24.576Z,0.73
2023-02-26T12:09:51.642Z,0.40
2023-02-26T12:12:24.620Z,0.33
2023-02-26T12:14:55.097Z,0.60
2023-02-26T12:17:29.401Z,0.63
2023-02-26T12:20:19.648Z,0.77
2023-02-26T12:22:47.408Z,0.53
2023-02-26T12:25:28.949Z,0.40
2023-02-26T12:28:09.027Z,0.50
2023-02-26T12:30:36.082Z,0.60
2023-02-26T12:33:24.895Z,0.90
2023-02-26T12:36:11.678Z,0.57
2023-02-26T12:38:55.580Z,0.40
2023-02-26T12:41:22.611Z,1.67
2023-02-26T12:43:51.755Z,0.60
2023-02-26T12:46:49.632Z,0.50
2023-02-26T12:49:54.507Z,0.50
2023-02-26T12:52:37.144Z,0.40
2023-02-26T12:55:20.190Z,0.40
2023-02-26T12:58:15.142Z,0.50
2023-02-26T13:01:03.736Z,0.43
2023-02-26T13:03:41.638Z,0.50
2023-02-26T13:06:35.393Z,0.67
2023-02-26T13:09:20.576Z,0.50
2023-02-26T13:12:06.224Z,0.40
2023-02-26T13:14:54.790Z,1.33
2023-02-26T13:17:34.951Z,0.50
2023-02-26T13:20:11.183Z,0.60
2023-02-26T13:22:45.872Z,0.60
2023-02-26T13:25:24.741Z,0.60
2023-02-26T13:27:57.343Z,0.50
2023-02-26T13:30:32.517Z,0.53
2023-02-26T13:33:00.405Z,0.40
2023-02-26T13:35:39.423Z,0.63
2023-02-26T13:38:15.230Z,0.50
2023-02-26T13:41:09.843Z,0.60
2023-02-26T13:44:02.287Z,0.97
2023-02-26T13:46:52.206Z,0.40
2023-02-26T13:49:29.531Z,0.60
2023-02-26T13:51:57.382Z,0.40
2023-02-26T13:54:32.553Z,0.50
2023-02-26T13:57:26.286Z,1.30
2023-02-26T14:00:25.294Z,0.90
2023-02-26T14:02:55.647Z,0.70
2023-02-26T14:06:06.248Z,0.73
2023-02-26T14:08:42.972Z,0.60
2023-02-26T14:11:43.449Z,0.40
2023-02-26T14:14:25.713Z,0.50
2023-02-26T14:17:01.309Z,0.80
2023-02-26T14:19:52.463Z,0.63
2023-02-26T14:22:32.988Z,0.60
2023-02-26T14:25:14.900Z,1.50
2023-02-26T14:27:43.533Z,0.53
2023-02-26T14:30:10.552Z,1.37
2023-02-26T14:32:49.507Z,2.23
2023-02-26T14:35:27.595Z,0.77
2023-02-26T14:37:59.222Z,0.50
2023-02-26T14:40:28.866Z,0.43
2023-02-26T14:42:59.088Z,1.20
2023-02-26T14:45:30.578Z,2.73
2023-02-26T14:48:03.782Z,16.73
2023-02-26T14:51:06.060Z,22.13
2023-02-26T14:54:07.500Z,8.23
2023-02-26T14:57:07.280Z,2.27
2023-02-26T15:00:13.124Z,3.27
2023-02-26T15:02:50.943Z,5.80
2023-02-26T15:05:54.594Z,7.30
2023-02-26T15:08:39.770Z,10.70
2023-02-26T15:11:34.849Z,12.10
2023-02-26T15:14:46.302Z,24.67
2023-02-26T15:17:39.831Z,4.23
2023-02-26T15:20:16.205Z,12.47
2023-02-26T15:23:20.371Z,2.43
2023-02-26T15:25:49.056Z,4.70
2023-02-26T15:28:30.034Z,0.87
2023-02-26T15:31:01.017Z,12.10
2023-02-26T15:33:28.454Z,10.73
2023-02-26T15:35:57.541Z,2.77
2023-02-26T15:38:24.634Z,3.30
2023-02-26T15:40:54.015Z,2.00
2023-02-26T15:43:25.564Z,2.77
2023-02-26T15:45:55.580Z,0.70
2023-02-26T15:48:29.207Z,7.77
2023-02-26T15:51:02.224Z,6.90
2023-02-26T15:53:33.945Z,1.80
2023-02-26T15:56:04.625Z,2.00
2023-02-26T15:58:37.495Z,1.30
2023-02-26T16:01:05.379Z,2.67
2023-02-26T16:03:35.421Z,1.50
2023-02-26T16:06:02.906Z,1.87
2023-02-26T16:08:30.199Z,4.90
2023-02-26T16:10:59.669Z,4.57
2023-02-26T16:13:33.319Z,4.43
2023-02-26T16:16:04.611Z,1.53
2023-02-26T16:18:32.930Z,3.83
2023-02-26T16:21:02.272Z,4.67
2023-02-26T16:23:36.512Z,7.97
2023-02-26T16:26:06.428Z,3.93
2023-02-26T16:28:37.789Z,2.40
2023-02-26T16:31:06.080Z,0.90
2023-02-26T16:33:34.433Z,2.67
2023-02-26T16:36:17.547Z,0.80
2023-02-26T16:38:59.046Z,2.00
2023-02-26T16:41:30.001Z,2.10
2023-02-26T16:43:58.937Z,3.17
2023-02-26T16:46:37.896Z,3.23
2023-02-26T16:49:21.937Z,0.97
2023-02-26T16:51:49.103Z,2.30
2023-02-26T16:54:25.673Z,1.20
2023-02-26T16:57:04.068Z,6.67
2023-02-26T16:59:34.687Z,2.70
2023-02-26T17:02:05.031Z,1.33
2023-02-26T17:04:37.101Z,2.50
2023-02-26T17:07:16.618Z,1.43
2023-02-26T17:09:50.993Z,0.80
2023-02-26T17:12:42.641Z,6.00
2023-02-26T17:15:36.285Z,3.70
2023-02-26T17:18:03.353Z,3.47
2023-02-26T17:20:31.291Z,2.50
2023-02-26T17:23:00.108Z,4.03
2023-02-26T17:25:29.800Z,2.80
2023-02-26T17:27:57.607Z,1.13
2023-02-26T17:30:25.533Z,1.20
2023-02-26T17:32:52.641Z,1.60
2023-02-26T17:35:19.938Z,3.33
2023-02-26T17:37:47.150Z,3.27
2023-02-26T17:40:27.102Z,2.10
2023-02-26T17:42:54.187Z,2.10
2023-02-26T17:45:21.161Z,1.27
2023-02-26T17:47:48.828Z,2.30
2023-02-26T17:50:26.863Z,1.50
2023-02-26T17:52:53.495Z,2.43
2023-02-26T17:55:20.559Z,2.47
2023-02-26T17:57:47.668Z,4.23
2023-02-26T18:00:17.273Z,6.90
2023-02-26T18:02:44.280Z,9.73
2023-02-26T18:05:11.322Z,4.43
2023-02-26T18:07:38.618Z,3.10
2023-02-26T18:10:06.122Z,3.37
2023-02-26T18:12:33.203Z,1.57
2023-02-26T18:15:00.223Z,2.07
2023-02-26T18:17:30.980Z,3.87
2023-02-26T18:19:57.723Z,1.90
2023-02-26T18:22:25.861Z,2.00
2023-02-26T18:24:53.913Z,2.00
2023-02-26T18:27:23.260Z,1.40
2023-02-26T18:29:50.302Z,1.50
2023-02-26T18:32:20.532Z,2.00
2023-02-26T18:34:49.201Z,1.60
2023-02-26T18:37:19.896Z,1.20
2023-02-26T18:39:46.920Z,2.43
2023-02-26T18:42:23.291Z,2.40
2023-02-26T18:44:50.811Z,4.50
2023-02-26T18:47:18.902Z,1.10
2023-02-26T18:49:46.719Z,3.97
2023-02-26T18:52:14.371Z,1.60
2023-02-26T18:54:41.261Z,2.37
2023-02-26T18:57:08.400Z,1.80
2023-02-26T18:59:35.332Z,4.00
2023-02-26T19:02:04.380Z,4.90
2023-02-26T19:04:31.411Z,3.10
2023-02-26T19:06:58.767Z,3.30
2023-02-26T19:09:26.989Z,3.40
2023-02-26T19:11:53.843Z,1.87
2023-02-26T19:14:21.089Z,2.63
2023-02-26T19:16:47.964Z,2.43
2023-02-26T19:19:15.190Z,2.93
2023-02-26T19:21:42.672Z,1.90
2023-02-26T19:24:11.043Z,3.10
2023-02-26T19:26:38.179Z,4.27
2023-02-26T19:29:07.736Z,5.80
2023-02-26T19:31:36.376Z,3.40
2023-02-26T19:34:04.276Z,3.07
2023-02-26T19:36:33.518Z,1.93
2023-02-26T19:39:01.764Z,2.43
2023-02-26T19:41:29.239Z,0.90
2023-02-26T19:43:56.737Z,2.20
2023-02-26T19:46:24.427Z,1.40
2023-02-26T19:48:51.644Z,1.40
2023-02-26T19:51:18.745Z,1.70
2023-02-26T19:53:45.722Z,1.50
2023-02-26T19:56:12.769Z,1.70
2023-02-26T19:58:39.373Z,1.30
2023-02-26T20:01:06.571Z,1.80
2023-02-26T20:03:33.284Z,1.33
2023-02-26T20:06:00.928Z,2.83
2023-02-26T20:08:29.502Z,2.27
2023-02-26T20:10:58.011Z,2.43
2023-02-26T20:13:29.638Z,2.20
2023-02-26T20:15:59.821Z,2.33
2023-02-26T20:18:28.772Z,1.93
2023-02-26T20:20:56.176Z,1.80
2023-02-26T20:23:23.455Z,2.20
2023-02-26T20:25:50.422Z,2.07
2023-02-26T20:28:18.286Z,2.00
2023-02-26T20:30:45.914Z,3.63
2023-02-26T20:33:13.214Z,2.57
2023-02-26T20:35:44.366Z,3.50
2023-02-26T20:38:11.474Z,2.20
2023-02-26T20:40:38.412Z,1.80
2023-02-26T20:43:05.598Z,2.10
2023-02-26T20:45:32.450Z,2.23
2023-02-26T20:47:59.135Z,2.17
2023-02-26T20:50:26.291Z,2.60
2023-02-26T20:52:53.346Z,1.73
2023-02-26T20:55:21.499Z,3.60
2023-02-26T20:57:48.633Z,2.57
2023-02-26T21:00:15.847Z,1.80
2023-02-26T21:02:43.838Z,2.10
2023-02-26T21:05:11.706Z,4.63
2023-02-26T21:07:39.380Z,5.23
2023-02-26T21:10:11.838Z,4.13
2023-02-26T21:12:38.939Z,6.47
2023-02-26T21:15:10.178Z,4.73
2023-02-26T21:17:38.530Z,4.60
2023-02-26T21:20:06.939Z,4.00
2023-02-26T21:22:35.458Z,4.30
2023-02-26T21:25:03.338Z,3.70
2023-02-26T21:27:29.947Z,3.40
2023-02-26T21:29:57.111Z,2.87
2023-02-26T21:32:23.823Z,2.90
2023-02-26T21:34:50.947Z,2.63
2023-02-26T21:37:18.109Z,2.40
2023-02-26T21:39:46.302Z,2.67
2023-02-26T21:42:13.383Z,1.97
2023-02-26T21:44:40.501Z,1.63
2023-02-26T21:47:07.813Z,1.80
2023-02-26T21:49:34.611Z,2.10
2023-02-26T21:52:03.447Z,2.00
2023-02-26T21:54:30.711Z,2.53
2023-02-26T21:56:57.944Z,2.07
2023-02-26T21:59:25.001Z,2.53
2023-02-26T22:01:53.051Z,2.97
2023-02-26T22:04:20.348Z,3.40
2023-02-26T22:06:47.512Z,2.60
2023-02-26T22:09:14.687Z,3.50
2023-02-26T22:11:41.891Z,6.30
2023-02-26T22:14:08.650Z,7.77
2023-02-26T22:16:35.908Z,3.10
2023-02-26T22:19:02.689Z,2.60
2023-02-26T22:21:29.839Z,2.33
2023-02-26T22:23:57.203Z,2.30
2023-02-26T22:26:24.335Z,2.70
2023-02-26T22:28:51.717Z,3.13
2023-02-26T22:31:19.079Z,2.47
2023-02-26T22:33:46.292Z,2.40
2023-02-26T22:36:13.397Z,2.10
2023-02-26T22:38:40.463Z,2.90
2023-02-26T22:41:07.912Z,3.03
2023-02-26T22:43:34.961Z,3.10
2023-02-26T22:46:02.144Z,2.50
2023-02-26T22:48:29.350Z,2.17
2023-02-26T22:50:56.467Z,2.77
2023-02-26T22:53:23.588Z,2.73
2023-02-26T22:55:53.561Z,2.33
2023-02-26T22:58:20.318Z,4.77
2023-02-26T23:00:46.958Z,7.77
2023-02-26T23:03:15.109Z,6.97
2023-02-26T23:05:42.150Z,3.00
2023-02-26T23:08:09.330Z,2.57
2023-02-26T23:10:36.458Z,2.73
2023-02-26T23:13:03.488Z,4.73
2023-02-26T23:15:30.578Z,3.73
2023-02-26T23:17:57.612Z,3.27
2023-02-26T23:20:24.658Z,2.70
2023-02-26T23:22:51.747Z,2.70
2023-02-26T23:25:18.791Z,2.73
2023-02-26T23:27:45.862Z,2.07
2023-02-26T23:30:13.018Z,3.13
2023-02-26T23:32:39.808Z,3.10
2023-02-26T23:35:06.990Z,2.20
2023-02-26T23:37:33.589Z,2.27
2023-02-26T23:40:00.699Z,3.40
2023-02-26T23:42:27.738Z,2.20
2023-02-26T23:44:54.870Z,8.27
2023-02-26T23:47:21.482Z,8.33
2023-02-26T23:49:48.482Z,3.90
2023-02-26T23:52:15.398Z,2.37
2023-02-26T23:54:42.524Z,1.53
2023-02-26T23:57:09.686Z,1.73
2023-02-26T23:59:36.711Z,1.40
